Ulaanbaatar, Mongolia

8:16 PM ULAT on September 02, 2014 (GMT +0800)
Buyant-Ukhaa | Change Station
CLOSE
Current Station
Airport
Location: Ulaanbaatar,
Elevation: 4364 ft
Nearby Weather Stations

Elev 4364 ft 47.83 °N, 106.78 °E | Updated 16 minutes ago

Clear
Clear
63 °F
Feels Like 63 °F
N
7
Wind Variable Wind from SSE

Today
High -- | Low -- °F
--% Chance of Precip.
Yesterday
High -- | Low -- °F
Precip. -- in
6:11 AM 7:32 PM
Waxing Crescent, 51% visible
Pressure 29.92 in
Visibility -9999.0 miles
Clouds
Dew Point 32 °F
Humidity 32%
Rainfall 0.00 in
Snow Depth Not available.
UV Not available.
Pollen Not available.
Air Quality Not available.
Flu Activity Not available.
METAR ZMUB 021200Z 16003MPS CAVOK 17/M00 Q1013 NOSIG RMK QFE652.9 33

More Conditions Fewer Conditions

Pressure 29.92 in
Visibility -9999.0 miles
Clouds
Dew Point 32 °F
Humidity 32%
Rainfall 0.00 in
Snow Depth Not available.
UV Not available.
Pollen Not available.
Air Quality Not available.
Flu Activity Not available.
METAR ZMUB 021200Z 16003MPS CAVOK 17/M00 Q1013 NOSIG RMK QFE652.9 33

More Conditions Fewer Conditions

10-Day Weather Forecast

Almanac

Astronomy

Sep. 02, 2014 Rise Set
Actual Time 6:11 AM ULAT 7:32 PM ULAT
Civil Twilight 5:39 AM ULAT 8:04 PM ULAT
Nautical Twilight 5:00 AM ULAT 8:43 PM ULAT
Astronomical Twilight 4:19 AM ULAT 9:24 PM ULAT
Moon 1:54 PM ULAT 11:26 PM ULAT
Length of Visible Light 14h 24m
Length of Day
13h 20m
Tomorrow will be 3m 21s shorter.
Waxing Crescent, 51% of the Moon is Illuminated
Today
Waxing Crescent
Sep 8
Full
Sep 15
Last Quarter
Sep 24
New
Oct 1
First Quarter

Yesterday's Extremes

Country Highs Country Lows

Community

WunderPhotos

Upload Photos

1,749,638 photos uploaded!

WunderBlogs® & News

By Dr. Jeff Masters
Director of Meteorology, Weather Underground
By Kari Strenfel
Meteorologist, Weather Underground
By Christopher C. Burt
Weather Historian, Weather Underground
September 2, 2014
September 2, 2014
September 2, 2014

Nearby

Snow Depth

Not available.

Earthquake Activity

City Distance Mag. Time & Date
No recent earthquake activity has been reported nearby.
Minimum magnitude displayed is 2.5.

Coastal Water Temperatures

Place Temperature
No Stations Reporting

Nearby Weather Stations